sensor_id;sensor_type;location;lat;lon;timestamp;P1;durP1;ratioP1;P2;durP2;ratioP2
66095;SDS011;53861;53.422;14.530;2022-09-09T00:01:41;11.65;;;5.20;;
66095;SDS011;53861;53.422;14.530;2022-09-09T00:04:18;7.65;;;5.32;;
66095;SDS011;53861;53.422;14.530;2022-09-09T00:06:55;7.90;;;5.50;;
66095;SDS011;53861;53.422;14.530;2022-09-09T00:09:29;11.35;;;5.70;;
66095;SDS011;53861;53.422;14.530;2022-09-09T00:11:58;8.20;;;5.70;;
66095;SDS011;53861;53.422;14.530;2022-09-09T00:14:32;7.57;;;5.28;;
66095;SDS011;53861;53.422;14.530;2022-09-09T00:17:06;8.88;;;5.60;;
66095;SDS011;53861;53.422;14.530;2022-09-09T00:19:39;6.68;;;4.60;;
66095;SDS011;53861;53.422;14.530;2022-09-09T00:22:15;8.18;;;5.07;;
66095;SDS011;53861;53.422;14.530;2022-09-09T00:24:44;11.27;;;5.45;;
66095;SDS011;53861;53.422;14.530;2022-09-09T00:27:16;9.77;;;5.50;;
66095;SDS011;53861;53.422;14.530;2022-09-09T00:29:51;8.77;;;5.95;;
66095;SDS011;53861;53.422;14.530;2022-09-09T00:32:21;10.27;;;6.13;;
66095;SDS011;53861;53.422;14.530;2022-09-09T00:34:52;9.63;;;6.43;;
66095;SDS011;53861;53.422;14.530;2022-09-09T00:37:22;9.13;;;6.10;;
66095;SDS011;53861;53.422;14.530;2022-09-09T00:39:52;9.73;;;6.20;;
66095;SDS011;53861;53.422;14.530;2022-09-09T00:42:24;9.52;;;6.07;;
66095;SDS011;53861;53.422;14.530;2022-09-09T00:44:55;8.65;;;5.57;;
66095;SDS011;53861;53.422;14.530;2022-09-09T00:47:40;10.30;;;5.75;;
66095;SDS011;53861;53.422;14.530;2022-09-09T00:50:17;9.80;;;6.00;;
66095;SDS011;53861;53.422;14.530;2022-09-09T00:53:02;8.32;;;5.53;;
66095;SDS011;53861;53.422;14.530;2022-09-09T00:55:40;8.50;;;6.13;;
66095;SDS011;53861;53.422;14.530;2022-09-09T00:58:11;8.55;;;5.63;;
66095;SDS011;53861;53.422;14.530;2022-09-09T01:00:40;10.85;;;6.10;;
66095;SDS011;53861;53.422;14.530;2022-09-09T01:03:16;7.35;;;5.18;;
66095;SDS011;53861;53.422;14.530;2022-09-09T01:05:51;9.10;;;6.13;;
66095;SDS011;53861;53.422;14.530;2022-09-09T01:08:28;9.38;;;5.65;;
66095;SDS011;53861;53.422;14.530;2022-09-09T01:11:09;10.20;;;6.05;;
66095;SDS011;53861;53.422;14.530;2022-09-09T01:13:42;10.25;;;6.60;;
66095;SDS011;53861;53.422;14.530;2022-09-09T01:16:12;11.85;;;6.88;;
66095;SDS011;53861;53.422;14.530;2022-09-09T01:18:43;11.10;;;7.60;;
66095;SDS011;53861;53.422;14.530;2022-09-09T01:21:15;12.73;;;8.05;;
66095;SDS011;53861;53.422;14.530;2022-09-09T01:23:56;11.20;;;7.50;;
66095;SDS011;53861;53.422;14.530;2022-09-09T01:26:41;13.15;;;7.93;;
66095;SDS011;53861;53.422;14.530;2022-09-09T01:29:11;12.95;;;8.13;;
66095;SDS011;53861;53.422;14.530;2022-09-09T01:31:40;12.88;;;8.13;;
66095;SDS011;53861;53.422;14.530;2022-09-09T01:34:10;13.15;;;8.43;;
66095;SDS011;53861;53.422;14.530;2022-09-09T01:36:38;12.93;;;8.40;;
66095;SDS011;53861;53.422;14.530;2022-09-09T01:39:10;14.02;;;8.98;;
66095;SDS011;53861;53.422;14.530;2022-09-09T01:41:38;14.40;;;9.20;;
66095;SDS011;53861;53.422;14.530;2022-09-09T01:44:06;15.07;;;9.50;;
66095;SDS011;53861;53.422;14.530;2022-09-09T01:46:34;14.82;;;9.45;;
66095;SDS011;53861;53.422;14.530;2022-09-09T01:49:03;15.73;;;9.85;;
66095;SDS011;53861;53.422;14.530;2022-09-09T01:51:31;16.48;;;10.00;;
66095;SDS011;53861;53.422;14.530;2022-09-09T01:53:59;17.23;;;10.35;;
66095;SDS011;53861;53.422;14.530;2022-09-09T01:56:30;18.30;;;10.43;;
66095;SDS011;53861;53.422;14.530;2022-09-09T01:59:11;17.30;;;10.32;;
66095;SDS011;53861;53.422;14.530;2022-09-09T02:01:56;19.23;;;10.85;;
66095;SDS011;53861;53.422;14.530;2022-09-09T02:04:35;17.95;;;10.25;;
66095;SDS011;53861;53.422;14.530;2022-09-09T02:07:06;18.08;;;10.38;;
66095;SDS011;53861;53.422;14.530;2022-09-09T02:09:40;16.88;;;10.23;;
66095;SDS011;53861;53.422;14.530;2022-09-09T02:12:13;18.10;;;10.23;;
66095;SDS011;53861;53.422;14.530;2022-09-09T02:14:47;16.35;;;9.57;;
66095;SDS011;53861;53.422;14.530;2022-09-09T02:17:19;18.45;;;10.50;;
66095;SDS011;53861;53.422;14.530;2022-09-09T02:19:54;18.05;;;10.90;;
66095;SDS011;53861;53.422;14.530;2022-09-09T02:22:27;16.98;;;10.07;;
66095;SDS011;53861;53.422;14.530;2022-09-09T02:24:56;17.27;;;10.77;;
66095;SDS011;53861;53.422;14.530;2022-09-09T02:27:26;18.77;;;10.77;;
66095;SDS011;53861;53.422;14.530;2022-09-09T02:29:56;21.92;;;11.70;;
66095;SDS011;53861;53.422;14.530;2022-09-09T02:32:26;22.02;;;11.75;;
66095;SDS011;53861;53.422;14.530;2022-09-09T02:34:56;18.77;;;11.50;;
66095;SDS011;53861;53.422;14.530;2022-09-09T02:37:29;19.25;;;11.40;;
66095;SDS011;53861;53.422;14.530;2022-09-09T02:40:02;21.02;;;11.73;;
66095;SDS011;53861;53.422;14.530;2022-09-09T02:42:30;24.23;;;12.25;;
66095;SDS011;53861;53.422;14.530;2022-09-09T02:44:59;21.83;;;12.13;;
66095;SDS011;53861;53.422;14.530;2022-09-09T02:47:29;20.58;;;12.18;;
66095;SDS011;53861;53.422;14.530;2022-09-09T02:50:19;21.58;;;12.48;;
66095;SDS011;53861;53.422;14.530;2022-09-09T02:53:22;19.65;;;11.05;;
66095;SDS011;53861;53.422;14.530;2022-09-09T02:55:54;21.02;;;12.35;;
66095;SDS011;53861;53.422;14.530;2022-09-09T02:58:24;19.77;;;11.35;;
66095;SDS011;53861;53.422;14.530;2022-09-09T03:00:53;20.92;;;12.25;;
66095;SDS011;53861;53.422;14.530;2022-09-09T03:03:20;19.50;;;12.18;;
66095;SDS011;53861;53.422;14.530;2022-09-09T03:05:47;21.80;;;11.82;;
66095;SDS011;53861;53.422;14.530;2022-09-09T03:08:15;21.30;;;12.07;;
66095;SDS011;53861;53.422;14.530;2022-09-09T03:10:42;19.95;;;10.95;;
66095;SDS011;53861;53.422;14.530;2022-09-09T03:13:09;20.70;;;11.82;;
66095;SDS011;53861;53.422;14.530;2022-09-09T03:16:04;18.60;;;11.65;;
66095;SDS011;53861;53.422;14.530;2022-09-09T03:19:01;20.48;;;11.55;;
66095;SDS011;53861;53.422;14.530;2022-09-09T03:21:29;22.13;;;12.57;;
66095;SDS011;53861;53.422;14.530;2022-09-09T03:23:56;21.77;;;12.38;;
66095;SDS011;53861;53.422;14.530;2022-09-09T03:26:23;22.73;;;12.75;;
66095;SDS011;53861;53.422;14.530;2022-09-09T03:28:51;22.13;;;13.05;;
66095;SDS011;53861;53.422;14.530;2022-09-09T03:31:20;23.55;;;13.02;;
66095;SDS011;53861;53.422;14.530;2022-09-09T03:33:47;22.98;;;13.02;;
66095;SDS011;53861;53.422;14.530;2022-09-09T03:36:14;29.02;;;13.23;;
66095;SDS011;53861;53.422;14.530;2022-09-09T03:38:42;24.13;;;13.55;;
66095;SDS011;53861;53.422;14.530;2022-09-09T03:41:09;24.17;;;14.10;;
66095;SDS011;53861;53.422;14.530;2022-09-09T03:43:36;28.13;;;14.98;;
66095;SDS011;53861;53.422;14.530;2022-09-09T03:46:03;26.73;;;15.10;;
66095;SDS011;53861;53.422;14.530;2022-09-09T03:48:32;27.48;;;13.95;;
66095;SDS011;53861;53.422;14.530;2022-09-09T03:50:59;29.33;;;14.77;;
66095;SDS011;53861;53.422;14.530;2022-09-09T03:53:28;27.80;;;15.00;;
66095;SDS011;53861;53.422;14.530;2022-09-09T03:55:56;27.13;;;15.00;;
66095;SDS011;53861;53.422;14.530;2022-09-09T03:58:25;27.48;;;14.25;;
66095;SDS011;53861;53.422;14.530;2022-09-09T04:00:54;28.88;;;15.40;;
66095;SDS011;53861;53.422;14.530;2022-09-09T04:03:22;30.45;;;15.98;;
66095;SDS011;53861;53.422;14.530;2022-09-09T04:05:52;30.58;;;15.82;;
66095;SDS011;53861;53.422;14.530;2022-09-09T04:08:20;30.05;;;15.80;;
66095;SDS011;53861;53.422;14.530;2022-09-09T04:10:50;32.40;;;16.42;;
66095;SDS011;53861;53.422;14.530;2022-09-09T04:13:17;33.65;;;17.45;;
66095;SDS011;53861;53.422;14.530;2022-09-09T04:15:50;31.10;;;16.52;;
66095;SDS011;53861;53.422;14.530;2022-09-09T04:18:17;33.92;;;16.70;;
66095;SDS011;53861;53.422;14.530;2022-09-09T04:20:45;34.47;;;17.17;;
66095;SDS011;53861;53.422;14.530;2022-09-09T04:23:14;34.80;;;17.42;;
66095;SDS011;53861;53.422;14.530;2022-09-09T04:25:44;37.38;;;18.15;;
66095;SDS011;53861;53.422;14.530;2022-09-09T04:28:12;41.95;;;18.23;;
66095;SDS011;53861;53.422;14.530;2022-09-09T04:30:40;38.13;;;18.95;;
66095;SDS011;53861;53.422;14.530;2022-09-09T04:33:07;39.45;;;18.77;;
66095;SDS011;53861;53.422;14.530;2022-09-09T04:35:35;38.67;;;17.60;;
66095;SDS011;53861;53.422;14.530;2022-09-09T04:38:03;33.22;;;17.50;;
66095;SDS011;53861;53.422;14.530;2022-09-09T04:40:35;37.50;;;17.83;;
66095;SDS011;53861;53.422;14.530;2022-09-09T04:43:03;38.05;;;18.02;;
66095;SDS011;53861;53.422;14.530;2022-09-09T04:45:31;38.65;;;18.00;;
66095;SDS011;53861;53.422;14.530;2022-09-09T04:47:59;38.75;;;18.10;;
66095;SDS011;53861;53.422;14.530;2022-09-09T04:50:26;32.17;;;16.42;;
66095;SDS011;53861;53.422;14.530;2022-09-09T04:52:54;33.63;;;17.40;;
66095;SDS011;53861;53.422;14.530;2022-09-09T04:55:21;30.90;;;15.57;;
66095;SDS011;53861;53.422;14.530;2022-09-09T04:57:49;34.10;;;16.73;;
66095;SDS011;53861;53.422;14.530;2022-09-09T05:00:17;34.97;;;16.33;;
66095;SDS011;53861;53.422;14.530;2022-09-09T05:02:44;35.10;;;17.45;;
66095;SDS011;53861;53.422;14.530;2022-09-09T05:05:11;37.92;;;17.88;;
66095;SDS011;53861;53.422;14.530;2022-09-09T05:07:38;36.15;;;17.33;;
66095;SDS011;53861;53.422;14.530;2022-09-09T05:10:06;38.95;;;17.30;;
66095;SDS011;53861;53.422;14.530;2022-09-09T05:12:33;33.65;;;16.35;;
66095;SDS011;53861;53.422;14.530;2022-09-09T05:15:02;36.70;;;17.48;;
66095;SDS011;53861;53.422;14.530;2022-09-09T05:17:30;33.25;;;16.65;;
66095;SDS011;53861;53.422;14.530;2022-09-09T05:19:59;31.52;;;16.20;;
66095;SDS011;53861;53.422;14.530;2022-09-09T05:22:28;32.55;;;16.25;;
66095;SDS011;53861;53.422;14.530;2022-09-09T05:24:55;30.95;;;16.40;;
66095;SDS011;53861;53.422;14.530;2022-09-09T05:27:24;32.20;;;15.95;;
66095;SDS011;53861;53.422;14.530;2022-09-09T05:29:51;32.90;;;16.73;;
66095;SDS011;53861;53.422;14.530;2022-09-09T05:32:22;32.35;;;16.50;;
66095;SDS011;53861;53.422;14.530;2022-09-09T05:34:49;26.70;;;15.23;;
66095;SDS011;53861;53.422;14.530;2022-09-09T05:37:22;30.45;;;15.50;;
66095;SDS011;53861;53.422;14.530;2022-09-09T05:39:52;32.28;;;15.93;;
66095;SDS011;53861;53.422;14.530;2022-09-09T05:42:23;30.98;;;15.25;;
66095;SDS011;53861;53.422;14.530;2022-09-09T05:44:53;32.92;;;16.52;;
66095;SDS011;53861;53.422;14.530;2022-09-09T05:47:20;38.58;;;17.67;;
66095;SDS011;53861;53.422;14.530;2022-09-09T05:49:49;38.10;;;17.40;;
66095;SDS011;53861;53.422;14.530;2022-09-09T05:52:21;35.58;;;16.90;;
66095;SDS011;53861;53.422;14.530;2022-09-09T05:54:49;35.20;;;17.73;;
66095;SDS011;53861;53.422;14.530;2022-09-09T05:57:25;34.72;;;16.48;;
66095;SDS011;53861;53.422;14.530;2022-09-09T05:59:52;35.03;;;17.25;;
66095;SDS011;53861;53.422;14.530;2022-09-09T06:02:24;32.85;;;16.33;;
66095;SDS011;53861;53.422;14.530;2022-09-09T06:04:53;35.10;;;16.35;;
66095;SDS011;53861;53.422;14.530;2022-09-09T06:07:22;39.08;;;17.20;;
66095;SDS011;53861;53.422;14.530;2022-09-09T06:09:52;38.10;;;16.90;;
66095;SDS011;53861;53.422;14.530;2022-09-09T06:12:19;33.38;;;15.23;;
66095;SDS011;53861;53.422;14.530;2022-09-09T06:14:48;32.13;;;15.93;;
66095;SDS011;53861;53.422;14.530;2022-09-09T06:17:16;34.45;;;14.95;;
66095;SDS011;53861;53.422;14.530;2022-09-09T06:19:45;34.13;;;14.48;;
66095;SDS011;53861;53.422;14.530;2022-09-09T06:22:12;35.40;;;15.80;;
66095;SDS011;53861;53.422;14.530;2022-09-09T06:24:39;31.25;;;13.68;;
66095;SDS011;53861;53.422;14.530;2022-09-09T06:27:06;31.83;;;14.25;;
66095;SDS011;53861;53.422;14.530;2022-09-09T06:29:34;32.20;;;13.63;;
66095;SDS011;53861;53.422;14.530;2022-09-09T06:32:01;35.85;;;14.80;;
66095;SDS011;53861;53.422;14.530;2022-09-09T06:34:29;30.48;;;13.30;;
66095;SDS011;53861;53.422;14.530;2022-09-09T06:36:57;30.60;;;13.45;;
66095;SDS011;53861;53.422;14.530;2022-09-09T06:39:24;28.42;;;12.45;;
66095;SDS011;53861;53.422;14.530;2022-09-09T06:41:57;31.80;;;13.45;;
66095;SDS011;53861;53.422;14.530;2022-09-09T06:44:27;30.83;;;12.07;;
66095;SDS011;53861;53.422;14.530;2022-09-09T06:46:57;29.08;;;12.73;;
66095;SDS011;53861;53.422;14.530;2022-09-09T06:49:24;26.48;;;11.70;;
66095;SDS011;53861;53.422;14.530;2022-09-09T06:51:51;27.52;;;11.52;;
66095;SDS011;53861;53.422;14.530;2022-09-09T06:54:20;29.33;;;12.07;;
66095;SDS011;53861;53.422;14.530;2022-09-09T06:56:49;29.23;;;12.48;;
66095;SDS011;53861;53.422;14.530;2022-09-09T06:59:16;30.35;;;12.05;;
66095;SDS011;53861;53.422;14.530;2022-09-09T07:01:43;26.67;;;11.50;;
66095;SDS011;53861;53.422;14.530;2022-09-09T07:04:11;25.27;;;11.35;;
66095;SDS011;53861;53.422;14.530;2022-09-09T07:06:39;29.83;;;12.02;;
66095;SDS011;53861;53.422;14.530;2022-09-09T07:09:09;33.65;;;12.45;;
66095;SDS011;53861;53.422;14.530;2022-09-09T07:11:42;35.03;;;12.63;;
66095;SDS011;53861;53.422;14.530;2022-09-09T07:14:11;33.15;;;12.50;;
66095;SDS011;53861;53.422;14.530;2022-09-09T07:16:39;29.67;;;12.25;;
66095;SDS011;53861;53.422;14.530;2022-09-09T07:19:07;23.98;;;10.98;;
66095;SDS011;53861;53.422;14.530;2022-09-09T07:21:35;25.48;;;12.35;;
66095;SDS011;53861;53.422;14.530;2022-09-09T07:24:03;25.85;;;11.55;;
66095;SDS011;53861;53.422;14.530;2022-09-09T07:26:34;26.67;;;11.80;;
66095;SDS011;53861;53.422;14.530;2022-09-09T07:29:03;29.25;;;13.25;;
66095;SDS011;53861;53.422;14.530;2022-09-09T07:31:31;22.13;;;11.18;;
66095;SDS011;53861;53.422;14.530;2022-09-09T07:34:00;22.85;;;11.43;;
66095;SDS011;53861;53.422;14.530;2022-09-09T07:36:28;25.50;;;11.95;;
66095;SDS011;53861;53.422;14.530;2022-09-09T07:38:57;23.73;;;11.40;;
66095;SDS011;53861;53.422;14.530;2022-09-09T07:41:26;29.30;;;12.15;;
66095;SDS011;53861;53.422;14.530;2022-09-09T07:43:55;23.40;;;12.05;;
66095;SDS011;53861;53.422;14.530;2022-09-09T07:46:25;21.92;;;11.82;;
66095;SDS011;53861;53.422;14.530;2022-09-09T07:48:54;22.08;;;12.30;;
66095;SDS011;53861;53.422;14.530;2022-09-09T07:51:23;23.85;;;12.48;;
66095;SDS011;53861;53.422;14.530;2022-09-09T07:53:52;22.45;;;12.93;;
66095;SDS011;53861;53.422;14.530;2022-09-09T07:56:20;26.05;;;14.10;;
66095;SDS011;53861;53.422;14.530;2022-09-09T07:58:49;23.45;;;13.60;;
66095;SDS011;53861;53.422;14.530;2022-09-09T08:01:18;23.92;;;13.55;;
66095;SDS011;53861;53.422;14.530;2022-09-09T08:03:52;22.95;;;13.45;;
66095;SDS011;53861;53.422;14.530;2022-09-09T08:06:20;20.45;;;13.07;;
66095;SDS011;53861;53.422;14.530;2022-09-09T08:08:49;21.30;;;12.77;;
66095;SDS011;53861;53.422;14.530;2022-09-09T08:11:17;20.98;;;13.13;;
66095;SDS011;53861;53.422;14.530;2022-09-09T08:13:44;23.08;;;13.65;;
66095;SDS011;53861;53.422;14.530;2022-09-09T08:16:14;22.70;;;13.68;;
66095;SDS011;53861;53.422;14.530;2022-09-09T08:18:42;27.73;;;14.68;;
66095;SDS011;53861;53.422;14.530;2022-09-09T08:21:14;22.27;;;13.32;;
66095;SDS011;53861;53.422;14.530;2022-09-09T08:26:11;22.75;;;13.07;;
66095;SDS011;53861;53.422;14.530;2022-09-09T08:28:43;23.55;;;13.80;;
66095;SDS011;53861;53.422;14.530;2022-09-09T08:31:11;21.42;;;13.48;;
66095;SDS011;53861;53.422;14.530;2022-09-09T08:33:40;17.73;;;11.98;;
66095;SDS011;53861;53.422;14.530;2022-09-09T08:36:09;19.73;;;13.00;;
66095;SDS011;53861;53.422;14.530;2022-09-09T08:38:38;24.35;;;12.80;;
66095;SDS011;53861;53.422;14.530;2022-09-09T08:44:06;16.65;;;11.35;;
66095;SDS011;53861;53.422;14.530;2022-09-09T08:46:38;19.50;;;12.57;;
66095;SDS011;53861;53.422;14.530;2022-09-09T08:49:17;17.67;;;12.57;;
66095;SDS011;53861;53.422;14.530;2022-09-09T08:51:54;14.25;;;10.07;;
66095;SDS011;53861;53.422;14.530;2022-09-09T08:54:24;11.82;;;8.80;;
66095;SDS011;53861;53.422;14.530;2022-09-09T08:56:57;13.68;;;9.38;;
66095;SDS011;53861;53.422;14.530;2022-09-09T08:59:27;16.60;;;10.15;;
66095;SDS011;53861;53.422;14.530;2022-09-09T09:01:57;12.98;;;9.30;;
66095;SDS011;53861;53.422;14.530;2022-09-09T09:04:32;12.70;;;8.45;;
66095;SDS011;53861;53.422;14.530;2022-09-09T09:07:21;11.52;;;7.70;;
66095;SDS011;53861;53.422;14.530;2022-09-09T09:10:02;12.55;;;8.85;;
66095;SDS011;53861;53.422;14.530;2022-09-09T09:12:38;15.55;;;9.25;;
66095;SDS011;53861;53.422;14.530;2022-09-09T09:15:11;11.25;;;7.57;;
66095;SDS011;53861;53.422;14.530;2022-09-09T09:17:43;10.38;;;7.65;;
66095;SDS011;53861;53.422;14.530;2022-09-09T09:20:11;11.85;;;6.97;;
66095;SDS011;53861;53.422;14.530;2022-09-09T09:22:43;11.10;;;7.07;;
66095;SDS011;53861;53.422;14.530;2022-09-09T09:25:17;8.77;;;6.63;;
66095;SDS011;53861;53.422;14.530;2022-09-09T09:27:48;22.20;;;9.00;;
66095;SDS011;53861;53.422;14.530;2022-09-09T09:30:21;14.65;;;9.27;;
66095;SDS011;53861;53.422;14.530;2022-09-09T09:32:53;13.85;;;7.22;;
66095;SDS011;53861;53.422;14.530;2022-09-09T09:35:22;8.98;;;6.45;;
66095;SDS011;53861;53.422;14.530;2022-09-09T09:37:50;13.20;;;6.72;;
66095;SDS011;53861;53.422;14.530;2022-09-09T09:40:19;14.23;;;8.05;;
66095;SDS011;53861;53.422;14.530;2022-09-09T09:42:49;16.80;;;7.35;;
66095;SDS011;53861;53.422;14.530;2022-09-09T09:45:26;13.32;;;7.38;;
66095;SDS011;53861;53.422;14.530;2022-09-09T09:47:57;9.60;;;6.00;;
66095;SDS011;53861;53.422;14.530;2022-09-09T09:50:25;16.17;;;8.05;;
66095;SDS011;53861;53.422;14.530;2022-09-09T09:52:55;16.60;;;8.10;;
66095;SDS011;53861;53.422;14.530;2022-09-09T09:55:25;13.18;;;7.00;;
66095;SDS011;53861;53.422;14.530;2022-09-09T09:58:00;13.02;;;7.00;;
66095;SDS011;53861;53.422;14.530;2022-09-09T10:00:29;12.85;;;7.40;;
66095;SDS011;53861;53.422;14.530;2022-09-09T10:02:56;13.40;;;7.97;;
66095;SDS011;53861;53.422;14.530;2022-09-09T10:05:24;14.55;;;8.18;;
66095;SDS011;53861;53.422;14.530;2022-09-09T10:08:03;9.30;;;6.38;;
66095;SDS011;53861;53.422;14.530;2022-09-09T10:10:36;8.48;;;4.55;;
66095;SDS011;53861;53.422;14.530;2022-09-09T10:13:15;8.73;;;4.60;;
66095;SDS011;53861;53.422;14.530;2022-09-09T10:15:52;7.20;;;4.55;;
66095;SDS011;53861;53.422;14.530;2022-09-09T10:18:34;6.60;;;4.43;;
66095;SDS011;53861;53.422;14.530;2022-09-09T10:21:12;9.00;;;4.60;;
66095;SDS011;53861;53.422;14.530;2022-09-09T10:24:01;6.65;;;4.32;;
66095;SDS011;53861;53.422;14.530;2022-09-09T10:26:45;6.72;;;4.13;;
66095;SDS011;53861;53.422;14.530;2022-09-09T10:29:22;6.88;;;4.07;;
66095;SDS011;53861;53.422;14.530;2022-09-09T10:32:06;8.18;;;3.90;;
66095;SDS011;53861;53.422;14.530;2022-09-09T10:34:46;10.10;;;4.32;;
66095;SDS011;53861;53.422;14.530;2022-09-09T10:37:27;8.95;;;4.10;;
66095;SDS011;53861;53.422;14.530;2022-09-09T10:40:13;8.82;;;4.70;;
66095;SDS011;53861;53.422;14.530;2022-09-09T10:42:58;7.85;;;4.20;;
66095;SDS011;53861;53.422;14.530;2022-09-09T10:45:32;5.90;;;4.07;;
66095;SDS011;53861;53.422;14.530;2022-09-09T10:48:11;9.98;;;4.82;;
66095;SDS011;53861;53.422;14.530;2022-09-09T10:50:57;8.45;;;4.30;;
66095;SDS011;53861;53.422;14.530;2022-09-09T10:53:37;9.15;;;3.90;;
66095;SDS011;53861;53.422;14.530;2022-09-09T10:56:12;6.88;;;4.03;;
66095;SDS011;53861;53.422;14.530;2022-09-09T10:58:46;8.10;;;4.28;;
66095;SDS011;53861;53.422;14.530;2022-09-09T11:01:18;6.72;;;4.53;;
66095;SDS011;53861;53.422;14.530;2022-09-09T11:03:50;7.85;;;4.70;;
66095;SDS011;53861;53.422;14.530;2022-09-09T11:06:22;13.20;;;5.43;;
66095;SDS011;53861;53.422;14.530;2022-09-09T11:08:56;7.82;;;5.03;;
66095;SDS011;53861;53.422;14.530;2022-09-09T11:11:27;6.57;;;4.70;;
66095;SDS011;53861;53.422;14.530;2022-09-09T11:14:05;8.65;;;4.50;;
66095;SDS011;53861;53.422;14.530;2022-09-09T11:16:40;6.85;;;4.38;;
66095;SDS011;53861;53.422;14.530;2022-09-09T11:19:15;6.55;;;4.05;;
66095;SDS011;53861;53.422;14.530;2022-09-09T11:21:47;7.90;;;4.20;;
66095;SDS011;53861;53.422;14.530;2022-09-09T11:24:19;7.20;;;4.28;;
66095;SDS011;53861;53.422;14.530;2022-09-09T11:26:51;9.73;;;4.57;;
66095;SDS011;53861;53.422;14.530;2022-09-09T11:29:26;6.78;;;4.10;;
66095;SDS011;53861;53.422;14.530;2022-09-09T11:32:20;7.13;;;4.75;;
66095;SDS011;53861;53.422;14.530;2022-09-09T11:37:49;7.97;;;3.92;;
66095;SDS011;53861;53.422;14.530;2022-09-09T11:40:29;9.50;;;4.43;;
66095;SDS011;53861;53.422;14.530;2022-09-09T11:43:01;10.73;;;4.22;;
66095;SDS011;53861;53.422;14.530;2022-09-09T11:45:32;6.47;;;4.10;;
66095;SDS011;53861;53.422;14.530;2022-09-09T11:48:01;7.25;;;4.22;;
66095;SDS011;53861;53.422;14.530;2022-09-09T11:50:34;10.55;;;4.47;;
66095;SDS011;53861;53.422;14.530;2022-09-09T11:53:04;9.18;;;4.30;;
66095;SDS011;53861;53.422;14.530;2022-09-09T11:55:46;9.82;;;4.13;;
66095;SDS011;53861;53.422;14.530;2022-09-09T11:58:15;9.32;;;3.80;;
66095;SDS011;53861;53.422;14.530;2022-09-09T12:00:46;10.73;;;4.18;;
66095;SDS011;53861;53.422;14.530;2022-09-09T12:06:15;9.65;;;4.10;;
66095;SDS011;53861;53.422;14.530;2022-09-09T12:08:46;6.68;;;3.95;;
66095;SDS011;53861;53.422;14.530;2022-09-09T12:11:25;7.70;;;3.90;;
66095;SDS011;53861;53.422;14.530;2022-09-09T12:13:54;8.70;;;4.25;;
66095;SDS011;53861;53.422;14.530;2022-09-09T12:16:32;15.55;;;4.53;;
66095;SDS011;53861;53.422;14.530;2022-09-09T12:19:04;6.68;;;4.03;;
66095;SDS011;53861;53.422;14.530;2022-09-09T12:21:36;6.85;;;4.00;;
66095;SDS011;53861;53.422;14.530;2022-09-09T12:24:10;6.63;;;3.60;;
66095;SDS011;53861;53.422;14.530;2022-09-09T12:26:40;6.90;;;4.03;;
66095;SDS011;53861;53.422;14.530;2022-09-09T12:29:20;8.15;;;3.92;;
66095;SDS011;53861;53.422;14.530;2022-09-09T12:31:58;8.35;;;4.32;;
66095;SDS011;53861;53.422;14.530;2022-09-09T12:34:33;5.70;;;3.72;;
66095;SDS011;53861;53.422;14.530;2022-09-09T12:37:06;7.60;;;3.55;;
66095;SDS011;53861;53.422;14.530;2022-09-09T12:39:42;8.73;;;3.20;;
66095;SDS011;53861;53.422;14.530;2022-09-09T12:42:15;7.28;;;3.28;;
66095;SDS011;53861;53.422;14.530;2022-09-09T12:44:50;4.88;;;2.50;;
66095;SDS011;53861;53.422;14.530;2022-09-09T12:47:25;10.68;;;2.88;;
66095;SDS011;53861;53.422;14.530;2022-09-09T12:50:00;6.20;;;2.10;;
66095;SDS011;53861;53.422;14.530;2022-09-09T12:52:28;8.82;;;2.55;;
66095;SDS011;53861;53.422;14.530;2022-09-09T12:55:03;5.60;;;2.30;;
66095;SDS011;53861;53.422;14.530;2022-09-09T12:57:36;6.28;;;2.50;;
66095;SDS011;53861;53.422;14.530;2022-09-09T13:00:07;8.75;;;2.40;;
66095;SDS011;53861;53.422;14.530;2022-09-09T13:02:46;6.28;;;2.22;;
66095;SDS011;53861;53.422;14.530;2022-09-09T13:05:19;7.15;;;3.20;;
66095;SDS011;53861;53.422;14.530;2022-09-09T13:07:48;6.55;;;3.50;;
66095;SDS011;53861;53.422;14.530;2022-09-09T13:10:17;10.35;;;3.30;;
66095;SDS011;53861;53.422;14.530;2022-09-09T13:12:50;7.55;;;3.58;;
66095;SDS011;53861;53.422;14.530;2022-09-09T13:15:19;6.78;;;3.30;;
66095;SDS011;53861;53.422;14.530;2022-09-09T13:17:51;11.80;;;3.05;;
66095;SDS011;53861;53.422;14.530;2022-09-09T13:20:19;6.10;;;2.47;;
66095;SDS011;53861;53.422;14.530;2022-09-09T13:22:48;6.28;;;2.70;;
66095;SDS011;53861;53.422;14.530;2022-09-09T13:25:19;9.35;;;3.03;;
66095;SDS011;53861;53.422;14.530;2022-09-09T13:27:51;8.98;;;2.90;;
66095;SDS011;53861;53.422;14.530;2022-09-09T13:30:22;9.40;;;2.60;;
66095;SDS011;53861;53.422;14.530;2022-09-09T13:35:49;5.25;;;2.58;;
66095;SDS011;53861;53.422;14.530;2022-09-09T13:38:19;7.18;;;2.58;;
66095;SDS011;53861;53.422;14.530;2022-09-09T13:40:56;9.30;;;2.50;;
66095;SDS011;53861;53.422;14.530;2022-09-09T13:43:27;6.88;;;2.58;;
66095;SDS011;53861;53.422;14.530;2022-09-09T13:45:56;15.10;;;2.90;;
66095;SDS011;53861;53.422;14.530;2022-09-09T13:48:27;7.90;;;2.58;;
66095;SDS011;53861;53.422;14.530;2022-09-09T13:50:59;6.07;;;2.75;;
66095;SDS011;53861;53.422;14.530;2022-09-09T13:53:28;13.50;;;2.80;;
66095;SDS011;53861;53.422;14.530;2022-09-09T13:55:56;7.88;;;3.00;;
66095;SDS011;53861;53.422;14.530;2022-09-09T13:58:24;8.98;;;3.00;;
66095;SDS011;53861;53.422;14.530;2022-09-09T14:00:52;6.32;;;2.72;;
66095;SDS011;53861;53.422;14.530;2022-09-09T14:03:19;8.65;;;3.42;;
66095;SDS011;53861;53.422;14.530;2022-09-09T14:05:48;6.88;;;2.60;;
66095;SDS011;53861;53.422;14.530;2022-09-09T14:08:21;8.07;;;2.90;;
66095;SDS011;53861;53.422;14.530;2022-09-09T14:10:51;7.20;;;3.13;;
66095;SDS011;53861;53.422;14.530;2022-09-09T14:13:18;10.35;;;3.00;;
66095;SDS011;53861;53.422;14.530;2022-09-09T14:15:47;8.30;;;2.88;;
66095;SDS011;53861;53.422;14.530;2022-09-09T14:18:15;7.75;;;3.40;;
66095;SDS011;53861;53.422;14.530;2022-09-09T14:20:42;8.63;;;2.72;;
66095;SDS011;53861;53.422;14.530;2022-09-09T14:23:11;7.20;;;2.70;;
66095;SDS011;53861;53.422;14.530;2022-09-09T14:25:39;5.95;;;2.40;;
66095;SDS011;53861;53.422;14.530;2022-09-09T14:28:08;6.28;;;2.30;;
66095;SDS011;53861;53.422;14.530;2022-09-09T14:30:37;9.00;;;2.85;;
66095;SDS011;53861;53.422;14.530;2022-09-09T14:33:06;5.78;;;2.75;;
66095;SDS011;53861;53.422;14.530;2022-09-09T14:35:37;11.15;;;3.15;;
66095;SDS011;53861;53.422;14.530;2022-09-09T14:38:06;8.82;;;2.80;;
66095;SDS011;53861;53.422;14.530;2022-09-09T14:40:36;5.13;;;2.28;;
66095;SDS011;53861;53.422;14.530;2022-09-09T14:43:04;9.18;;;2.80;;
66095;SDS011;53861;53.422;14.530;2022-09-09T14:45:32;9.73;;;2.80;;
66095;SDS011;53861;53.422;14.530;2022-09-09T14:47:59;7.15;;;2.90;;
66095;SDS011;53861;53.422;14.530;2022-09-09T14:50:26;8.20;;;2.97;;
66095;SDS011;53861;53.422;14.530;2022-09-09T14:52:54;9.77;;;3.13;;
66095;SDS011;53861;53.422;14.530;2022-09-09T14:55:21;7.55;;;2.78;;
66095;SDS011;53861;53.422;14.530;2022-09-09T14:57:50;10.73;;;4.00;;
66095;SDS011;53861;53.422;14.530;2022-09-09T15:00:17;8.30;;;2.88;;